Time;durP1;ratioP1;P1;durP2;ratioP2;P2;SDS_P1;SDS_P2;PMS_P1;PMS_P2;Temp;Humidity;BMP_temperature;BMP_pressure;BME280_temperature;BME280_humidity;BME280_pressure;Samples;Min_cycle;Max_cycle;Signal;HPM_P1;HPM_P2
2023/04/24 00:02:18;;;;;;;2.20;2.00;;;10.20;99.90;;;;;;5026160;28;20136;-69
2023/04/24 00:04:46;;;;;;;2.33;2.13;;;10.20;99.90;;;;;;5042597;28;20475;-68
2023/04/24 00:07:12;;;;;;;4.85;2.53;;;10.20;99.90;;;;;;5042667;28;20048;-68
2023/04/24 00:09:38;;;;;;;3.38;2.20;;;10.10;99.90;;;;;;5041751;28;20041;-68
2023/04/24 00:12:04;;;;;;;3.40;2.13;;;10.00;99.90;;;;;;5040375;28;20051;-68
2023/04/24 00:14:31;;;;;;;4.20;2.60;;;10.00;99.90;;;;;;5044560;28;20083;-68
2023/04/24 00:16:56;;;;;;;3.45;2.70;;;10.00;99.90;;;;;;5044334;28;20063;-68
2023/04/24 00:19:22;;;;;;;2.90;2.60;;;10.10;99.90;;;;;;5040717;28;20548;-68
2023/04/24 00:21:49;;;;;;;5.00;3.20;;;10.10;99.90;;;;;;5039415;28;20099;-68
2023/04/24 00:24:16;;;;;;;3.10;2.80;;;10.00;99.90;;;;;;5043764;28;20068;-69
2023/04/24 00:26:42;;;;;;;3.50;2.92;;;10.10;99.90;;;;;;5025345;28;20099;-68
2023/04/24 00:29:07;;;;;;;3.33;3.03;;;10.10;99.90;;;;;;5037820;28;21166;-68
2023/04/24 00:31:34;;;;;;;3.60;2.95;;;10.00;99.90;;;;;;5044169;28;20259;-68
2023/04/24 00:34:01;;;;;;;3.30;2.92;;;10.10;99.90;;;;;;5048702;28;20041;-68
2023/04/24 00:36:27;;;;;;;4.60;2.88;;;10.10;99.90;;;;;;5043529;28;20041;-68
2023/04/24 00:38:53;;;;;;;3.78;2.97;;;10.10;99.90;;;;;;5040825;28;20392;-69
2023/04/24 00:41:19;;;;;;;3.42;2.92;;;10.00;99.90;;;;;;5041375;28;20358;-69
2023/04/24 00:43:45;;;;;;;4.28;2.97;;;10.00;99.90;;;;;;5043510;28;20045;-68
2023/04/24 00:46:12;;;;;;;4.05;2.97;;;10.00;99.90;;;;;;5060101;28;20389;-68
2023/04/24 00:48:39;;;;;;;4.25;3.25;;;10.10;99.90;;;;;;5043807;28;20488;-68
2023/04/24 00:51:04;;;;;;;4.97;3.45;;;10.10;99.90;;;;;;5041033;28;20128;-69
2023/04/24 00:53:30;;;;;;;6.40;3.70;;;10.00;99.90;;;;;;5043906;28;20120;-69
2023/04/24 00:55:56;;;;;;;4.72;3.78;;;10.10;99.90;;;;;;5045056;28;20204;-69
2023/04/24 00:58:22;;;;;;;4.32;3.90;;;10.00;99.90;;;;;;5040946;28;20122;-69
2023/04/24 01:00:48;;;;;;;5.57;4.03;;;10.10;99.90;;;;;;5041849;28;20045;-69
2023/04/24 01:03:15;;;;;;;5.72;4.15;;;10.10;99.90;;;;;;5060517;28;20353;-69
2023/04/24 01:05:41;;;;;;;8.13;4.68;;;10.00;99.90;;;;;;5043112;28;20032;-70
2023/04/24 01:08:06;;;;;;;6.55;5.32;;;10.10;99.90;;;;;;5042392;28;20553;-68
2023/04/24 01:10:34;;;;;;;5.93;4.47;;;10.10;99.90;;;;;;5043013;28;20049;-71
2023/04/24 01:13:00;;;;;;;7.57;5.07;;;10.00;99.90;;;;;;5040752;28;20037;-69
2023/04/24 01:15:26;;;;;;;6.20;5.20;;;10.10;99.90;;;;;;5045475;28;20052;-71
2023/04/24 01:17:51;;;;;;;5.65;5.00;;;10.10;99.90;;;;;;5043285;28;20044;-68
2023/04/24 01:20:17;;;;;;;5.70;4.75;;;10.10;99.90;;;;;;5027537;28;20033;-71
2023/04/24 01:22:43;;;;;;;5.82;4.95;;;10.10;99.90;;;;;;5043994;28;20025;-73
2023/04/24 01:25:09;;;;;;;5.20;4.32;;;10.10;99.90;;;;;;5043121;28;20460;-72
2023/04/24 01:27:34;;;;;;;6.00;4.60;;;10.20;99.90;;;;;;5041441;28;20087;-70
2023/04/24 01:30:00;;;;;;;6.28;4.40;;;10.20;99.90;;;;;;5044785;28;20045;-72
2023/04/24 01:32:26;;;;;;;5.45;4.45;;;10.10;99.90;;;;;;5040557;28;20452;-72
2023/04/24 01:34:52;;;;;;;5.35;4.70;;;10.10;99.90;;;;;;5044814;28;20128;-73
2023/04/24 01:37:17;;;;;;;8.07;6.38;;;10.10;99.90;;;;;;5042139;28;20052;-72
2023/04/24 01:39:44;;;;;;;7.72;6.78;;;10.20;99.90;;;;;;5042510;28;20480;-72
2023/04/24 01:42:10;;;;;;;8.95;6.95;;;10.10;99.90;;;;;;5041218;28;20040;-72
2023/04/24 01:44:35;;;;;;;7.93;7.13;;;10.00;99.90;;;;;;5041123;28;20372;-71
2023/04/24 01:47:01;;;;;;;7.45;6.72;;;10.00;99.90;;;;;;5041636;28;20079;-70
2023/04/24 01:49:27;;;;;;;6.65;5.97;;;9.90;99.90;;;;;;5041237;28;20128;-72
2023/04/24 01:51:52;;;;;;;7.15;6.45;;;10.00;99.90;;;;;;5044597;28;20090;-71
2023/04/24 01:54:18;;;;;;;7.13;6.43;;;9.90;99.90;;;;;;5047026;28;20044;-70
2023/04/24 01:56:44;;;;;;;6.47;5.88;;;9.90;99.90;;;;;;5047100;28;20033;-70
2023/04/24 01:59:11;;;;;;;8.15;6.20;;;9.80;99.90;;;;;;5041524;28;20068;-72
2023/04/24 02:01:37;;;;;;;6.95;6.28;;;9.80;99.90;;;;;;5044299;28;20045;-73
2023/04/24 02:04:03;;;;;;;6.43;5.82;;;9.80;99.90;;;;;;5042825;28;20048;-72
2023/04/24 02:06:30;;;;;;;6.35;5.70;;;9.90;99.90;;;;;;5043898;28;20033;-72
2023/04/24 02:08:58;;;;;;;6.53;5.80;;;9.70;99.90;;;;;;5045773;28;20167;-71
2023/04/24 02:11:24;;;;;;;6.07;5.38;;;9.70;99.90;;;;;;5043692;28;20033;-73
2023/04/24 02:13:50;;;;;;;5.95;5.35;;;9.70;99.90;;;;;;5046184;28;20044;-71
2023/04/24 02:16:16;;;;;;;5.95;5.28;;;9.70;99.90;;;;;;5044636;28;20065;-74
2023/04/24 02:18:41;;;;;;;7.68;5.25;;;9.80;99.90;;;;;;5041023;28;21152;-67
2023/04/24 02:21:07;;;;;;;6.22;5.13;;;9.70;99.90;;;;;;5045112;28;20276;-73
2023/04/24 02:23:32;;;;;;;6.45;5.13;;;9.80;99.90;;;;;;5040406;28;20041;-65
2023/04/24 02:25:58;;;;;;;6.03;4.60;;;9.70;99.90;;;;;;5044279;28;20496;-68
2023/04/24 02:28:23;;;;;;;5.82;4.43;;;9.60;99.90;;;;;;5044388;28;20039;-72
2023/04/24 02:30:50;;;;;;;5.00;4.20;;;9.70;99.90;;;;;;5043310;28;20045;-74
2023/04/24 02:33:15;;;;;;;5.15;3.88;;;9.70;99.90;;;;;;5041558;28;20068;-65
2023/04/24 02:35:41;;;;;;;4.57;3.95;;;9.60;99.90;;;;;;5042764;28;20144;-70
2023/04/24 02:38:06;;;;;;;3.90;3.40;;;9.70;99.90;;;;;;5043312;28;20060;-70
2023/04/24 02:40:32;;;;;;;4.93;3.40;;;9.60;99.90;;;;;;5043590;28;20060;-72
2023/04/24 02:42:58;;;;;;;4.07;3.17;;;9.60;99.90;;;;;;5043747;28;20041;-71
2023/04/24 02:45:23;;;;;;;2.97;2.67;;;9.60;99.90;;;;;;5042636;28;20387;-73
2023/04/24 02:47:49;;;;;;;3.25;2.80;;;9.70;99.90;;;;;;5043716;28;20041;-71
2023/04/24 02:50:14;;;;;;;3.45;2.67;;;9.60;99.90;;;;;;5044294;28;20037;-72
2023/04/24 02:52:40;;;;;;;2.90;2.40;;;9.60;99.90;;;;;;5042925;28;20044;-74
2023/04/24 02:55:07;;;;;;;3.08;2.70;;;9.50;99.90;;;;;;5039966;28;20083;-72
2023/04/24 02:57:33;;;;;;;3.20;2.63;;;9.60;99.90;;;;;;5041328;28;20358;-73
2023/04/24 02:59:59;;;;;;;4.63;2.92;;;9.60;99.90;;;;;;5042574;28;20032;-75
2023/04/24 03:02:25;;;;;;;3.28;2.92;;;9.50;99.90;;;;;;5040840;28;20048;-72
2023/04/24 03:04:50;;;;;;;3.53;3.20;;;9.60;99.90;;;;;;5042067;28;20084;-74
2023/04/24 03:07:16;;;;;;;4.97;3.40;;;9.50;99.90;;;;;;5042027;28;20152;-74
2023/04/24 03:09:41;;;;;;;4.47;3.50;;;9.50;99.90;;;;;;5038372;28;20087;-73
2023/04/24 03:12:07;;;;;;;5.82;3.42;;;9.50;99.90;;;;;;5041286;28;20059;-73
2023/04/24 03:14:33;;;;;;;3.47;3.17;;;9.50;99.90;;;;;;5041741;28;20033;-72
2023/04/24 03:16:58;;;;;;;3.53;3.22;;;9.60;99.90;;;;;;5041123;28;20095;-73
2023/04/24 03:19:24;;;;;;;4.78;2.97;;;9.60;99.90;;;;;;5038780;28;20036;-74
2023/04/24 03:21:49;;;;;;;2.92;2.67;;;9.60;99.90;;;;;;5043414;28;20376;-74
2023/04/24 03:24:15;;;;;;;3.55;2.40;;;9.70;99.90;;;;;;5041346;28;20053;-71
2023/04/24 03:26:41;;;;;;;2.60;2.40;;;9.60;99.90;;;;;;5042850;28;20087;-74
2023/04/24 03:29:06;;;;;;;2.58;2.08;;;9.70;99.90;;;;;;5042038;28;20060;-75
2023/04/24 03:31:32;;;;;;;2.30;2.10;;;9.60;99.90;;;;;;5044427;28;20651;-68
2023/04/24 03:33:58;;;;;;;2.20;2.00;;;9.60;99.90;;;;;;5041649;28;20037;-69
2023/04/24 03:36:23;;;;;;;5.13;2.40;;;9.60;99.90;;;;;;5043638;28;20033;-72
2023/04/24 03:38:49;;;;;;;2.53;1.88;;;9.70;99.90;;;;;;5042292;28;20037;-69
2023/04/24 03:41:14;;;;;;;2.80;1.67;;;9.70;99.90;;;;;;5040458;28;20476;-66
2023/04/24 03:43:40;;;;;;;1.42;1.30;;;9.70;99.90;;;;;;5042558;28;20040;-68
2023/04/24 03:46:05;;;;;;;1.17;1.05;;;9.70;99.90;;;;;;5041952;28;20045;-70
2023/04/24 03:48:31;;;;;;;1.48;1.20;;;9.60;99.90;;;;;;5042538;28;20045;-70
2023/04/24 03:50:57;;;;;;;1.20;1.10;;;9.60;99.90;;;;;;5039637;28;20571;-67
2023/04/24 03:53:22;;;;;;;1.00;0.90;;;9.50;99.90;;;;;;5043690;28;20464;-67
2023/04/24 03:55:48;;;;;;;2.58;0.90;;;9.40;99.90;;;;;;5041148;28;20036;-70
2023/04/24 03:58:14;;;;;;;1.50;0.90;;;9.40;99.90;;;;;;5045921;28;20045;-68
2023/04/24 04:00:40;;;;;;;1.25;1.00;;;9.30;99.90;;;;;;5043493;28;20040;-69
2023/04/24 04:03:06;;;;;;;1.33;0.90;;;9.20;99.90;;;;;;5039565;28;20033;-65
2023/04/24 04:05:31;;;;;;;0.98;0.90;;;9.20;99.90;;;;;;5041738;28;20036;-68
2023/04/24 04:07:57;;;;;;;1.52;1.27;;;9.30;99.90;;;;;;5041473;28;20076;-69
2023/04/24 04:10:23;;;;;;;1.08;0.95;;;9.10;99.90;;;;;;5042374;28;20052;-72
2023/04/24 04:12:48;;;;;;;1.70;1.10;;;9.10;99.90;;;;;;5040525;28;20078;-67
2023/04/24 04:15:14;;;;;;;3.70;1.30;;;9.10;99.90;;;;;;5042752;28;20434;-70
2023/04/24 04:17:40;;;;;;;2.95;1.58;;;9.10;99.90;;;;;;5042035;28;20060;-67
2023/04/24 04:20:09;;;;;;;3.08;1.70;;;9.20;99.90;;;;;;5058181;28;20040;-68
2023/04/24 04:22:35;;;;;;;2.15;1.45;;;9.10;99.90;;;;;;5041891;28;20049;-69
2023/04/24 04:25:01;;;;;;;2.92;1.77;;;9.10;99.90;;;;;;5044778;28;20045;-68
2023/04/24 04:27:28;;;;;;;1.90;1.70;;;9.20;99.90;;;;;;5042497;28;20051;-68
2023/04/24 04:29:53;;;;;;;2.10;1.70;;;9.20;99.90;;;;;;5042592;28;20138;-69
2023/04/24 04:32:19;;;;;;;2.38;1.80;;;9.10;99.90;;;;;;5039700;28;20052;-72
2023/04/24 04:34:45;;;;;;;3.00;1.67;;;9.10;99.90;;;;;;5037735;28;20045;-69
2023/04/24 04:37:12;;;;;;;2.08;1.60;;;9.10;99.90;;;;;;5040089;28;20041;-69
2023/04/24 04:39:38;;;;;;;2.13;1.40;;;9.30;99.90;;;;;;5041628;28;20051;-69
2023/04/24 04:42:03;;;;;;;1.83;1.63;;;9.20;99.90;;;;;;5045123;28;20048;-70
2023/04/24 04:44:30;;;;;;;3.90;1.80;;;9.20;99.90;;;;;;5045549;28;20049;-72
2023/04/24 04:46:56;;;;;;;2.10;1.90;;;9.10;99.90;;;;;;5056366;28;20241;-72
2023/04/24 04:49:23;;;;;;;3.03;2.10;;;9.30;99.90;;;;;;5061234;28;20498;-72
2023/04/24 04:51:50;;;;;;;3.15;2.15;;;9.30;99.90;;;;;;5049798;28;20075;-72
2023/04/24 04:54:16;;;;;;;3.67;2.20;;;9.30;99.90;;;;;;5043993;28;20091;-71
2023/04/24 04:56:41;;;;;;;3.97;2.60;;;9.30;99.90;;;;;;5040917;28;20045;-67
2023/04/24 04:59:07;;;;;;;5.20;3.50;;;9.30;99.90;;;;;;5042799;28;20037;-70
2023/04/24 05:01:33;;;;;;;5.30;3.05;;;9.40;99.90;;;;;;5042406;28;20048;-70
2023/04/24 05:03:58;;;;;;;5.65;3.10;;;9.50;99.90;;;;;;5046419;28;20040;-69
2023/04/24 05:06:25;;;;;;;2.90;2.22;;;9.50;99.90;;;;;;5054648;28;20044;-71
2023/04/24 05:08:51;;;;;;;4.47;3.33;;;9.60;99.90;;;;;;5025369;28;20510;-72
2023/04/24 05:11:16;;;;;;;7.22;4.03;;;9.80;99.90;;;;;;5056198;28;20101;-68
2023/04/24 05:13:42;;;;;;;11.18;4.95;;;9.80;99.90;;;;;;5045584;28;20053;-69
2023/04/24 05:16:07;;;;;;;10.60;6.68;;;9.60;99.90;;;;;;5044207;28;20044;-75
2023/04/24 05:18:33;;;;;;;13.70;7.47;;;9.70;99.90;;;;;;5044687;28;20048;-73
2023/04/24 05:20:58;;;;;;;8.55;4.85;;;9.80;99.90;;;;;;5044827;28;20116;-71
2023/04/24 05:23:25;;;;;;;6.65;3.30;;;9.90;99.90;;;;;;5044709;28;20037;-67
2023/04/24 05:25:50;;;;;;;5.85;3.60;;;9.70;99.90;;;;;;5051701;28;20094;-68
2023/04/24 05:28:16;;;;;;;8.27;3.20;;;9.70;99.90;;;;;;5045274;28;20041;-69
2023/04/24 05:30:41;;;;;;;5.68;2.83;;;9.60;99.90;;;;;;5045711;28;20051;-71
2023/04/24 05:33:08;;;;;;;5.22;3.13;;;9.60;99.90;;;;;;5059503;28;20041;-67
2023/04/24 05:35:33;;;;;;;9.30;4.90;;;9.70;99.90;;;;;;5046899;28;20589;-69
2023/04/24 05:38:00;;;;;;;7.18;4.60;;;9.70;99.90;;;;;;5048020;28;20076;-65
2023/04/24 05:40:26;;;;;;;9.40;5.53;;;9.60;99.90;;;;;;5055359;28;20472;-65
2023/04/24 05:42:51;;;;;;;9.15;5.25;;;9.50;99.90;;;;;;5052829;28;20310;-67
2023/04/24 05:45:17;;;;;;;12.32;6.55;;;9.50;99.90;;;;;;5047363;28;20040;-67
2023/04/24 05:47:45;;;;;;;11.60;6.13;;;9.60;99.90;;;;;;5046344;28;20087;-66
2023/04/24 05:50:12;;;;;;;16.40;7.30;;;9.50;99.90;;;;;;5047684;28;20041;-65
2023/04/24 05:52:37;;;;;;;18.13;7.80;;;9.50;99.90;;;;;;5071859;28;20123;-66
2023/04/24 05:55:03;;;;;;;12.98;6.70;;;9.70;99.90;;;;;;5049047;28;20115;-65
2023/04/24 05:57:28;;;;;;;11.75;5.68;;;9.60;99.90;;;;;;5051428;28;20047;-64
2023/04/24 05:59:54;;;;;;;9.18;5.13;;;9.40;99.90;;;;;;5046706;28;20055;-65
2023/04/24 06:02:19;;;;;;;14.45;6.82;;;9.50;99.90;;;;;;5049008;28;20098;-65
2023/04/24 06:04:45;;;;;;;13.05;7.72;;;9.40;99.90;;;;;;5048845;28;20045;-67
2023/04/24 06:07:11;;;;;;;15.13;7.10;;;9.40;99.90;;;;;;5045476;28;20065;-66
2023/04/24 06:09:36;;;;;;;14.32;6.78;;;9.50;99.90;;;;;;5048705;28;20049;-65
2023/04/24 06:12:02;;;;;;;12.60;6.68;;;9.40;99.90;;;;;;5049440;28;20378;-64
2023/04/24 06:14:28;;;;;;;12.52;5.45;;;9.30;99.90;;;;;;5033366;28;20411;-63
2023/04/24 06:16:53;;;;;;;9.65;5.03;;;9.50;99.90;;;;;;5045544;28;20265;-64
2023/04/24 06:19:19;;;;;;;13.23;6.53;;;9.40;99.90;;;;;;5048147;28;20048;-65
2023/04/24 06:21:45;;;;;;;14.55;7.22;;;9.40;99.90;;;;;;5044639;28;20048;-66
2023/04/24 06:24:10;;;;;;;15.15;7.35;;;9.60;99.90;;;;;;5046364;28;20036;-65
2023/04/24 06:26:36;;;;;;;11.38;5.80;;;9.40;99.90;;;;;;5046623;28;20040;-64
2023/04/24 06:29:01;;;;;;;14.73;6.30;;;9.30;99.90;;;;;;5044162;28;20044;-66
2023/04/24 06:31:27;;;;;;;14.60;7.10;;;9.30;99.90;;;;;;5044391;28;20487;-66
2023/04/24 06:33:53;;;;;;;10.35;6.03;;;9.30;99.90;;;;;;5045762;28;20170;-65
2023/04/24 06:36:18;;;;;;;13.75;6.18;;;9.30;99.90;;;;;;5042927;28;20037;-63
2023/04/24 06:38:44;;;;;;;12.18;6.47;;;9.40;99.90;;;;;;5049626;28;20079;-63
2023/04/24 06:41:10;;;;;;;14.13;7.30;;;9.50;99.90;;;;;;5049497;28;20033;-67
2023/04/24 06:43:35;;;;;;;18.92;7.60;;;9.30;99.90;;;;;;5046632;28;20049;-66
2023/04/24 06:46:03;;;;;;;15.38;7.82;;;9.30;99.90;;;;;;5048582;28;20053;-64
2023/04/24 06:48:29;;;;;;;13.18;7.25;;;9.30;99.90;;;;;;5047210;28;20533;-63
2023/04/24 06:50:54;;;;;;;13.52;7.20;;;9.20;99.90;;;;;;5047746;28;20057;-63
2023/04/24 06:53:20;;;;;;;11.80;6.93;;;9.20;99.90;;;;;;5047763;28;20108;-64
2023/04/24 06:55:46;;;;;;;11.75;6.45;;;9.10;99.90;;;;;;5048718;28;20040;-66
2023/04/24 06:58:11;;;;;;;14.93;7.70;;;9.30;99.90;;;;;;5059925;28;20108;-65
2023/04/24 07:00:37;;;;;;;13.98;6.32;;;9.20;99.90;;;;;;5048715;28;20029;-66
2023/04/24 07:03:05;;;;;;;11.13;6.97;;;9.30;99.90;;;;;;5048280;28;20143;-66
2023/04/24 07:05:30;;;;;;;11.05;5.40;;;9.10;99.90;;;;;;5046261;28;20041;-64
2023/04/24 07:07:58;;;;;;;12.70;7.07;;;9.40;99.90;;;;;;5046552;28;20083;-64
2023/04/24 07:10:24;;;;;;;14.00;7.32;;;9.30;99.90;;;;;;5047659;28;20087;-64
2023/04/24 07:12:50;;;;;;;13.35;6.72;;;9.30;99.90;;;;;;5049606;28;20052;-65
2023/04/24 07:15:16;;;;;;;13.93;6.50;;;9.10;99.90;;;;;;5047526;28;20033;-67
2023/04/24 07:17:44;;;;;;;11.73;6.50;;;9.30;99.90;;;;;;5053017;28;20110;-65
2023/04/24 07:20:10;;;;;;;12.68;6.07;;;9.30;99.90;;;;;;5043622;28;20036;-65
2023/04/24 07:22:37;;;;;;;9.95;4.97;;;9.10;99.90;;;;;;5045582;28;20076;-64
2023/04/24 07:25:03;;;;;;;10.55;5.38;;;9.30;99.90;;;;;;5046539;28;20434;-63
2023/04/24 07:27:29;;;;;;;10.38;5.50;;;9.10;99.90;;;;;;5041985;28;20063;-64
2023/04/24 07:29:54;;;;;;;15.82;7.00;;;9.10;99.90;;;;;;5045637;28;20532;-65
2023/04/24 07:32:19;;;;;;;10.35;6.75;;;9.00;99.90;;;;;;5045871;28;20544;-64
2023/04/24 07:34:45;;;;;;;8.50;4.28;;;9.20;99.90;;;;;;5048425;28;20052;-65
2023/04/24 07:37:11;;;;;;;5.07;3.05;;;9.30;99.90;;;;;;5046609;28;20043;-64
2023/04/24 07:39:36;;;;;;;5.65;3.97;;;9.10;99.90;;;;;;5044044;28;21728;-63
2023/04/24 07:42:03;;;;;;;10.60;3.92;;;9.30;99.90;;;;;;5048285;28;20037;-68
2023/04/24 07:44:28;;;;;;;5.78;2.65;;;9.10;99.90;;;;;;5048482;28;20063;-65
2023/04/24 07:46:55;;;;;;;7.75;3.20;;;9.20;99.90;;;;;;5045141;28;20041;-65
2023/04/24 07:49:21;;;;;;;6.53;2.97;;;9.40;99.90;;;;;;5046252;28;20044;-65
2023/04/24 07:51:46;;;;;;;9.80;3.22;;;9.40;99.90;;;;;;5046625;28;20130;-65
2023/04/24 07:54:12;;;;;;;7.13;3.75;;;9.20;99.90;;;;;;5045959;28;20152;-68
2023/04/24 07:56:38;;;;;;;9.48;4.38;;;9.40;99.90;;;;;;5047179;28;20078;-68
2023/04/24 07:59:04;;;;;;;10.95;6.40;;;9.30;99.90;;;;;;5045153;28;20033;-67
2023/04/24 08:01:30;;;;;;;15.70;7.07;;;9.30;99.90;;;;;;5046813;28;20045;-68
2023/04/24 08:03:56;;;;;;;15.10;7.43;;;9.10;99.90;;;;;;5044903;28;20064;-66
2023/04/24 08:06:22;;;;;;;17.52;8.85;;;9.10;99.90;;;;;;5047040;28;20040;-64
2023/04/24 08:08:47;;;;;;;19.23;10.07;;;9.20;99.90;;;;;;5045303;28;20079;-67
2023/04/24 08:11:13;;;;;;;21.48;10.02;;;9.00;99.90;;;;;;5043176;28;20388;-67
2023/04/24 08:13:38;;;;;;;19.95;9.75;;;9.20;99.90;;;;;;5044668;28;20041;-65
2023/04/24 08:16:04;;;;;;;21.42;9.90;;;8.90;99.90;;;;;;5043988;28;20045;-66
2023/04/24 08:18:30;;;;;;;21.10;11.20;;;9.00;99.90;;;;;;5046674;28;20419;-70
2023/04/24 08:21:01;;;;;;;20.90;10.45;;;9.10;99.90;;;;;;5048380;28;20553;-69
2023/04/24 08:23:26;;;;;;;17.25;9.93;;;9.00;99.90;;;;;;5059609;28;20044;-65
2023/04/24 08:25:52;;;;;;;22.17;9.27;;;9.00;99.90;;;;;;5061389;28;20043;-69
2023/04/24 08:28:20;;;;;;;20.75;8.32;;;9.00;99.90;;;;;;5046407;28;20047;-67
2023/04/24 08:30:46;;;;;;;27.20;14.30;;;8.80;99.90;;;;;;5051145;28;20047;-70
2023/04/24 08:33:12;;;;;;;24.67;13.18;;;8.90;99.90;;;;;;5055235;28;20088;-67
2023/04/24 08:35:38;;;;;;;34.17;15.02;;;8.90;99.90;;;;;;5049958;28;20041;-71
2023/04/24 08:38:04;;;;;;;22.83;11.07;;;8.80;99.90;;;;;;5064785;28;20427;-69
2023/04/24 08:40:33;;;;;;;25.90;13.85;;;8.80;99.90;;;;;;5053471;28;20041;-67
2023/04/24 08:43:00;;;;;;;31.75;14.50;;;8.70;99.90;;;;;;5063120;28;20784;-66
2023/04/24 08:45:26;;;;;;;31.75;14.55;;;8.50;99.90;;;;;;5050282;28;20312;-64
2023/04/24 08:47:54;;;;;;;27.42;12.13;;;8.50;99.90;;;;;;5056016;28;20040;-69
2023/04/24 08:50:21;;;;;;;25.23;11.60;;;8.50;99.90;;;;;;5047326;28;20044;-68
2023/04/24 08:52:49;;;;;;;23.15;11.32;;;8.50;99.90;;;;;;5047471;28;20056;-65
2023/04/24 08:55:17;;;;;;;27.52;12.27;;;8.60;99.90;;;;;;5047656;28;20112;-63
2023/04/24 08:57:45;;;;;;;29.08;14.57;;;8.60;99.90;;;;;;5050197;28;20045;-63
2023/04/24 09:00:11;;;;;;;25.77;12.80;;;8.50;99.90;;;;;;5053740;28;20110;-68
2023/04/24 09:02:41;;;;;;;21.67;12.18;;;8.60;99.90;;;;;;5034966;28;21838;-64
2023/04/24 09:05:08;;;;;;;28.33;13.82;;;8.50;99.90;;;;;;5055166;28;20476;-65
2023/04/24 09:07:36;;;;;;;20.27;10.00;;;8.50;99.90;;;;;;5052392;28;20388;-63
2023/04/24 09:10:02;;;;;;;22.67;10.70;;;8.70;99.90;;;;;;5065462;28;20040;-66
2023/04/24 09:12:28;;;;;;;26.65;13.27;;;8.60;99.90;;;;;;5067470;28;20408;-64
2023/04/24 09:14:54;;;;;;;24.95;14.73;;;8.70;99.90;;;;;;5050292;28;20037;-68
2023/04/24 09:17:22;;;;;;;27.77;13.27;;;8.50;99.90;;;;;;5041632;28;20076;-65
2023/04/24 09:19:49;;;;;;;29.75;14.55;;;8.60;99.90;;;;;;5044979;28;20484;-68
2023/04/24 09:22:15;;;;;;;31.77;12.57;;;8.70;99.90;;;;;;5047026;28;20048;-65
2023/04/24 09:24:41;;;;;;;22.23;11.63;;;8.50;99.90;;;;;;5049135;28;20040;-66
2023/04/24 09:27:07;;;;;;;22.52;11.65;;;8.60;99.90;;;;;;5053767;28;20036;-66
2023/04/24 09:29:32;;;;;;;26.25;11.75;;;8.60;99.90;;;;;;5046087;28;20476;-64
2023/04/24 09:31:59;;;;;;;21.98;10.02;;;8.90;99.90;;;;;;5045752;28;20041;-64
2023/04/24 09:34:26;;;;;;;17.15;7.50;;;8.80;99.90;;;;;;5047738;28;20060;-67
2023/04/24 09:36:53;;;;;;;14.52;6.97;;;9.00;99.90;;;;;;5048088;28;20059;-65
2023/04/24 09:39:22;;;;;;;18.63;7.60;;;9.00;99.90;;;;;;5048145;28;20029;-69
2023/04/24 09:41:57;;;;;;;14.73;7.18;;;9.10;99.90;;;;;;5044042;28;20033;-67
2023/04/24 09:44:25;;;;;;;16.65;9.00;;;9.20;99.90;;;;;;5043218;28;20037;-66
2023/04/24 09:46:56;;;;;;;15.88;7.15;;;9.30;99.90;;;;;;5039102;28;20042;-67
2023/04/24 09:49:25;;;;;;;18.15;6.50;;;9.20;99.90;;;;;;5049441;28;20127;-65
2023/04/24 09:51:51;;;;;;;10.13;5.60;;;9.30;99.90;;;;;;5066073;28;20391;-67
2023/04/24 09:54:20;;;;;;;10.38;4.43;;;9.30;99.90;;;;;;5054437;28;20037;-67
2023/04/24 09:56:48;;;;;;;14.57;6.38;;;9.40;99.90;;;;;;5051082;28;20127;-67
2023/04/24 09:59:15;;;;;;;12.55;5.90;;;9.30;99.90;;;;;;5050110;28;20040;-67
2023/04/24 10:01:50;;;;;;;16.35;7.10;;;9.30;99.90;;;;;;5052000;28;20432;-67
2023/04/24 10:04:21;;;;;;;13.27;5.80;;;9.20;99.90;;;;;;5054020;28;20056;-70
2023/04/24 10:06:48;;;;;;;12.07;4.22;;;9.00;99.90;;;;;;5043249;28;20087;-66
2023/04/24 10:09:15;;;;;;;8.88;4.07;;;8.90;99.90;;;;;;5055496;28;20040;-68
2023/04/24 10:11:46;;;;;;;8.40;3.67;;;8.80;99.90;;;;;;5044796;28;20041;-69
2023/04/24 10:14:25;;;;;;;9.30;3.03;;;8.70;99.90;;;;;;5052322;28;20029;-69
2023/04/24 10:16:54;;;;;;;11.30;3.38;;;8.70;99.90;;;;;;5062498;28;20042;-65
2023/04/24 10:19:20;;;;;;;12.38;3.42;;;8.60;99.90;;;;;;5050921;28;20090;-68
2023/04/24 10:21:46;;;;;;;11.15;2.97;;;8.60;99.90;;;;;;5055423;28;20040;-66
2023/04/24 10:24:17;;;;;;;9.32;2.70;;;8.60;99.90;;;;;;5063106;28;20484;-69
2023/04/24 10:26:44;;;;;;;8.32;3.40;;;8.60;99.90;;;;;;5053179;28;20056;-69
2023/04/24 10:29:12;;;;;;;8.32;3.05;;;8.70;99.90;;;;;;5071212;28;20355;-70
2023/04/24 10:31:39;;;;;;;9.40;3.35;;;8.80;99.90;;;;;;5060582;28;20494;-69
2023/04/24 10:34:06;;;;;;;9.57;3.80;;;8.80;99.90;;;;;;5050489;28;20116;-70
2023/04/24 10:36:33;;;;;;;11.88;4.07;;;9.00;99.90;;;;;;5049827;28;20123;-71
2023/04/24 10:39:02;;;;;;;8.98;3.15;;;9.00;99.90;;;;;;5075510;28;20044;-69
2023/04/24 10:41:30;;;;;;;12.00;4.40;;;9.10;99.90;;;;;;5050838;28;20118;-69
2023/04/24 10:44:13;;;;;;;10.00;3.60;;;9.10;99.90;;;;;;5071300;28;20048;-65
2023/04/24 10:46:42;;;;;;;;;;;9.00;99.90;;;;;;5054280;28;20055;-69
2023/04/24 10:49:10;;;;;;;10.63;3.15;;;8.90;99.90;;;;;;5056295;28;20328;-69
2023/04/24 10:51:48;;;;;;;12.38;3.60;;;9.00;99.90;;;;;;5055819;28;20041;-67
2023/04/24 10:54:26;;;;;;;11.40;3.53;;;9.00;99.90;;;;;;5045827;28;20043;-68
2023/04/24 10:56:52;;;;;;;14.80;3.20;;;9.10;99.90;;;;;;5043837;28;20048;-69
2023/04/24 10:59:25;;;;;;;11.88;3.45;;;9.20;99.90;;;;;;5069224;28;20483;-67
2023/04/24 11:01:55;;;;;;;10.23;3.00;;;9.30;99.90;;;;;;5034281;28;20757;-68
2023/04/24 11:04:31;;;;;;;13.07;3.20;;;9.40;99.90;;;;;;5068477;28;20078;-69
2023/04/24 11:06:57;;;;;;;16.05;2.97;;;9.40;99.90;;;;;;5044673;28;20041;-70
2023/04/24 11:09:27;;;;;;;14.32;3.50;;;9.50;99.90;;;;;;5050641;28;20124;-68
2023/04/24 11:12:13;;;;;;;19.90;3.40;;;9.50;99.90;;;;;;5046698;28;20052;-68
2023/04/24 11:14:57;;;;;;;8.40;2.30;;;9.50;99.90;;;;;;5068264;28;20040;-69
2023/04/24 11:17:37;;;;;;;13.63;2.92;;;9.50;99.90;;;;;;5054979;28;20037;-69
2023/04/24 11:20:09;;;;;;;5.72;1.75;;;9.50;99.90;;;;;;5049096;28;20037;-68
2023/04/24 11:22:36;;;;;;;10.60;2.88;;;9.40;99.90;;;;;;5044486;28;20135;-69
2023/04/24 11:25:03;;;;;;;10.63;2.60;;;9.30;99.90;;;;;;5064827;28;20044;-69
2023/04/24 11:27:43;;;;;;;7.25;2.30;;;9.30;99.90;;;;;;5060994;28;20076;-69
2023/04/24 11:30:10;;;;;;;5.68;2.53;;;9.30;99.90;;;;;;5050245;28;20075;-70
2023/04/24 11:32:38;;;;;;;6.78;2.50;;;9.40;99.90;;;;;;5052761;28;20040;-68
2023/04/24 11:35:16;;;;;;;8.15;2.60;;;9.50;99.90;;;;;;5058774;28;20041;-68
2023/04/24 11:37:48;;;;;;;6.13;2.45;;;9.60;99.90;;;;;;5055845;28;20044;-71
2023/04/24 11:40:17;;;;;;;;;;;9.70;99.90;;;;;;5053017;28;20108;-72
2023/04/24 11:42:44;;;;;;;13.50;2.75;;;9.70;99.90;;;;;;5055450;28;19917;-71
2023/04/24 11:45:22;;;;;;;6.18;2.50;;;9.70;99.90;;;;;;5052985;28;20408;-72
2023/04/24 11:47:48;;;;;;;14.00;2.80;;;9.60;99.90;;;;;;5051148;28;20499;-72
2023/04/24 11:50:16;;;;;;;13.00;2.58;;;9.50;99.90;;;;;;5047950;28;20037;-70
2023/04/24 11:52:43;;;;;;;11.70;3.00;;;9.60;99.90;;;;;;5054971;28;20036;-69
2023/04/24 11:55:15;;;;;;;6.38;2.35;;;9.50;99.90;;;;;;5063732;28;20102;-70
2023/04/24 11:57:48;;;;;;;8.82;2.95;;;9.40;99.90;;;;;;5053627;28;20480;-69
2023/04/24 12:00:22;;;;;;;6.45;2.75;;;9.50;99.90;;;;;;5050063;28;20392;-70
2023/04/24 12:02:49;;;;;;;10.02;3.35;;;9.50;99.90;;;;;;5056958;28;20127;-67
2023/04/24 12:05:21;;;;;;;6.72;2.50;;;9.60;99.90;;;;;;5066985;28;20121;-67
2023/04/24 12:07:47;;;;;;;;;;;9.60;99.90;;;;;;5062482;28;20043;-72
2023/04/24 12:10:14;;;;;;;7.32;2.20;;;9.50;99.90;;;;;;5031276;28;19916;-69
2023/04/24 12:12:40;;;;;;;7.60;2.15;;;9.50;99.90;;;;;;5048405;28;20048;-72
2023/04/24 12:15:09;;;;;;;8.23;1.98;;;9.50;99.90;;;;;;5059494;28;20036;-70
2023/04/24 12:17:36;;;;;;;5.38;2.10;;;9.40;99.90;;;;;;5059602;28;20131;-71
2023/04/24 12:20:07;;;;;;;3.47;1.50;;;9.40;99.90;;;;;;5062797;28;20047;-71
2023/04/24 12:22:46;;;;;;;3.45;1.42;;;9.30;99.90;;;;;;5052717;28;20049;-70
2023/04/24 12:25:12;;;;;;;5.43;1.30;;;9.00;99.90;;;;;;5050443;28;20037;-69
2023/04/24 12:27:38;;;;;;;4.22;1.15;;;8.80;99.90;;;;;;5052963;28;20041;-69
2023/04/24 12:30:05;;;;;;;2.65;1.10;;;8.90;99.90;;;;;;5057142;28;20041;-70
2023/04/24 12:32:31;;;;;;;2.28;0.90;;;8.90;99.90;;;;;;5046323;28;20511;-67
2023/04/24 12:34:58;;;;;;;4.03;1.20;;;8.90;99.90;;;;;;5047800;28;20033;-67
2023/04/24 12:37:32;;;;;;;2.88;1.10;;;8.90;99.90;;;;;;5045253;28;20506;-68
2023/04/24 12:40:09;;;;;;;3.72;1.00;;;8.90;99.90;;;;;;5049737;28;20051;-70
2023/04/24 12:42:36;;;;;;;3.45;1.33;;;9.00;99.90;;;;;;5054386;28;20053;-68
2023/04/24 12:45:05;;;;;;;9.80;1.75;;;9.10;99.90;;;;;;5046679;28;20064;-70
2023/04/24 12:47:32;;;;;;;8.82;1.52;;;9.10;99.90;;;;;;5053715;28;20045;-69
2023/04/24 12:50:00;;;;;;;7.35;1.75;;;9.20;99.90;;;;;;5056623;28;20033;-72